sensor_id;sensor_type;location;lat;lon;timestamp;P1;durP1;ratioP1;P2;durP2;ratioP2
47431;SDS011;33183;52.290;6.144;2022-11-20T00:02:23;9.30;;;7.50;;
47431;SDS011;33183;52.290;6.144;2022-11-20T00:04:48;10.70;;;8.05;;
47431;SDS011;33183;52.290;6.144;2022-11-20T00:07:14;8.30;;;7.38;;
47431;SDS011;33183;52.290;6.144;2022-11-20T00:09:39;11.05;;;7.78;;
47431;SDS011;33183;52.290;6.144;2022-11-20T00:12:04;9.23;;;7.50;;
47431;SDS011;33183;52.290;6.144;2022-11-20T00:14:29;10.48;;;6.70;;
47431;SDS011;33183;52.290;6.144;2022-11-20T00:16:55;9.02;;;7.03;;
47431;SDS011;33183;52.290;6.144;2022-11-20T00:19:20;9.02;;;6.85;;
47431;SDS011;33183;52.290;6.144;2022-11-20T00:21:45;11.10;;;7.85;;
47431;SDS011;33183;52.290;6.144;2022-11-20T00:24:10;9.82;;;7.38;;
47431;SDS011;33183;52.290;6.144;2022-11-20T00:26:36;9.13;;;7.15;;
47431;SDS011;33183;52.290;6.144;2022-11-20T00:29:01;10.80;;;7.68;;
47431;SDS011;33183;52.290;6.144;2022-11-20T00:31:27;10.07;;;7.18;;
47431;SDS011;33183;52.290;6.144;2022-11-20T00:33:53;9.65;;;7.32;;
47431;SDS011;33183;52.290;6.144;2022-11-20T00:36:19;10.02;;;7.07;;
47431;SDS011;33183;52.290;6.144;2022-11-20T00:38:46;11.63;;;7.53;;
47431;SDS011;33183;52.290;6.144;2022-11-20T00:41:13;8.68;;;6.95;;
47431;SDS011;33183;52.290;6.144;2022-11-20T00:43:39;9.52;;;7.30;;
47431;SDS011;33183;52.290;6.144;2022-11-20T00:48:31;9.88;;;6.72;;
47431;SDS011;33183;52.290;6.144;2022-11-20T00:50:57;8.52;;;6.90;;
47431;SDS011;33183;52.290;6.144;2022-11-20T00:53:22;7.97;;;6.68;;
47431;SDS011;33183;52.290;6.144;2022-11-20T00:56:01;9.25;;;6.63;;
47431;SDS011;33183;52.290;6.144;2022-11-20T00:58:34;8.70;;;6.47;;
47431;SDS011;33183;52.290;6.144;2022-11-20T01:01:01;9.20;;;7.32;;
47431;SDS011;33183;52.290;6.144;2022-11-20T01:03:30;9.18;;;6.28;;
47431;SDS011;33183;52.290;6.144;2022-11-20T01:05:59;8.40;;;6.65;;
47431;SDS011;33183;52.290;6.144;2022-11-20T01:08:25;8.23;;;6.65;;
47431;SDS011;33183;52.290;6.144;2022-11-20T01:10:53;9.47;;;7.53;;
47431;SDS011;33183;52.290;6.144;2022-11-20T01:13:23;9.65;;;7.00;;
47431;SDS011;33183;52.290;6.144;2022-11-20T01:16:05;8.00;;;6.75;;
47431;SDS011;33183;52.290;6.144;2022-11-20T01:18:38;8.65;;;6.93;;
47431;SDS011;33183;52.290;6.144;2022-11-20T01:21:06;8.15;;;6.43;;
47431;SDS011;33183;52.290;6.144;2022-11-20T01:23:37;7.85;;;6.38;;
47431;SDS011;33183;52.290;6.144;2022-11-20T01:26:04;8.57;;;5.97;;
47431;SDS011;33183;52.290;6.144;2022-11-20T01:28:31;7.47;;;6.35;;
47431;SDS011;33183;52.290;6.144;2022-11-20T01:30:56;7.82;;;6.32;;
47431;SDS011;33183;52.290;6.144;2022-11-20T01:33:21;7.97;;;6.47;;
47431;SDS011;33183;52.290;6.144;2022-11-20T01:35:47;8.75;;;6.72;;
47431;SDS011;33183;52.290;6.144;2022-11-20T01:38:12;7.93;;;6.57;;
47431;SDS011;33183;52.290;6.144;2022-11-20T01:40:38;6.80;;;5.93;;
47431;SDS011;33183;52.290;6.144;2022-11-20T01:43:12;8.40;;;6.82;;
47431;SDS011;33183;52.290;6.144;2022-11-20T01:46:13;8.32;;;5.88;;
47431;SDS011;33183;52.290;6.144;2022-11-20T01:48:42;7.78;;;6.63;;
47431;SDS011;33183;52.290;6.144;2022-11-20T01:51:19;8.25;;;6.93;;
47431;SDS011;33183;52.290;6.144;2022-11-20T01:53:57;7.18;;;5.97;;
47431;SDS011;33183;52.290;6.144;2022-11-20T01:56:24;8.80;;;6.38;;
47431;SDS011;33183;52.290;6.144;2022-11-20T01:58:51;7.93;;;6.40;;
47431;SDS011;33183;52.290;6.144;2022-11-20T02:01:20;7.38;;;5.72;;
47431;SDS011;33183;52.290;6.144;2022-11-20T02:03:46;7.38;;;5.80;;
47431;SDS011;33183;52.290;6.144;2022-11-20T02:06:12;7.72;;;6.30;;
47431;SDS011;33183;52.290;6.144;2022-11-20T02:08:42;7.05;;;5.72;;
47431;SDS011;33183;52.290;6.144;2022-11-20T02:11:08;6.45;;;5.60;;
47431;SDS011;33183;52.290;6.144;2022-11-20T02:13:34;7.47;;;5.70;;
47431;SDS011;33183;52.290;6.144;2022-11-20T02:16:24;7.82;;;6.00;;
47431;SDS011;33183;52.290;6.144;2022-11-20T02:18:50;8.07;;;6.10;;
47431;SDS011;33183;52.290;6.144;2022-11-20T02:21:36;7.65;;;6.40;;
47431;SDS011;33183;52.290;6.144;2022-11-20T02:29:11;6.70;;;5.70;;
47431;SDS011;33183;52.290;6.144;2022-11-20T02:31:37;7.95;;;6.25;;
47431;SDS011;33183;52.290;6.144;2022-11-20T02:34:04;8.30;;;5.90;;
47431;SDS011;33183;52.290;6.144;2022-11-20T02:36:29;7.78;;;6.10;;
47431;SDS011;33183;52.290;6.144;2022-11-20T02:38:55;7.78;;;6.20;;
47431;SDS011;33183;52.290;6.144;2022-11-20T02:41:20;8.55;;;6.32;;
47431;SDS011;33183;52.290;6.144;2022-11-20T02:43:46;8.55;;;6.38;;
47431;SDS011;33183;52.290;6.144;2022-11-20T02:46:11;8.05;;;6.07;;
47431;SDS011;33183;52.290;6.144;2022-11-20T02:48:36;7.80;;;5.40;;
47431;SDS011;33183;52.290;6.144;2022-11-20T02:51:01;7.10;;;5.65;;
47431;SDS011;33183;52.290;6.144;2022-11-20T02:53:27;9.23;;;6.60;;
47431;SDS011;33183;52.290;6.144;2022-11-20T02:55:52;7.75;;;5.95;;
47431;SDS011;33183;52.290;6.144;2022-11-20T02:58:17;6.70;;;5.68;;
47431;SDS011;33183;52.290;6.144;2022-11-20T03:00:43;7.32;;;5.60;;
47431;SDS011;33183;52.290;6.144;2022-11-20T03:03:08;6.57;;;5.57;;
47431;SDS011;33183;52.290;6.144;2022-11-20T03:05:34;6.63;;;5.05;;
47431;SDS011;33183;52.290;6.144;2022-11-20T03:07:59;7.15;;;6.20;;
47431;SDS011;33183;52.290;6.144;2022-11-20T03:10:24;6.13;;;5.47;;
47431;SDS011;33183;52.290;6.144;2022-11-20T03:12:53;7.10;;;5.40;;
47431;SDS011;33183;52.290;6.144;2022-11-20T03:15:20;6.43;;;5.15;;
47431;SDS011;33183;52.290;6.144;2022-11-20T03:17:45;7.93;;;6.15;;
47431;SDS011;33183;52.290;6.144;2022-11-20T03:20:10;6.80;;;5.50;;
47431;SDS011;33183;52.290;6.144;2022-11-20T03:22:36;7.40;;;5.93;;
47431;SDS011;33183;52.290;6.144;2022-11-20T03:25:01;6.57;;;5.72;;
47431;SDS011;33183;52.290;6.144;2022-11-20T03:27:27;7.50;;;5.63;;
47431;SDS011;33183;52.290;6.144;2022-11-20T03:29:52;9.32;;;6.22;;
47431;SDS011;33183;52.290;6.144;2022-11-20T03:32:17;7.13;;;5.85;;
47431;SDS011;33183;52.290;6.144;2022-11-20T03:34:42;6.60;;;5.30;;
47431;SDS011;33183;52.290;6.144;2022-11-20T03:37:07;6.70;;;5.43;;
47431;SDS011;33183;52.290;6.144;2022-11-20T03:39:33;6.25;;;5.28;;
47431;SDS011;33183;52.290;6.144;2022-11-20T03:41:58;7.72;;;5.93;;
47431;SDS011;33183;52.290;6.144;2022-11-20T03:44:23;7.25;;;5.85;;
47431;SDS011;33183;52.290;6.144;2022-11-20T03:46:48;6.25;;;5.38;;
47431;SDS011;33183;52.290;6.144;2022-11-20T03:49:14;7.75;;;5.82;;
47431;SDS011;33183;52.290;6.144;2022-11-20T03:51:39;6.85;;;5.88;;
47431;SDS011;33183;52.290;6.144;2022-11-20T03:54:05;6.95;;;5.78;;
47431;SDS011;33183;52.290;6.144;2022-11-20T03:56:33;6.95;;;5.57;;
47431;SDS011;33183;52.290;6.144;2022-11-20T03:58:59;6.15;;;5.28;;
47431;SDS011;33183;52.290;6.144;2022-11-20T04:01:26;6.68;;;5.40;;
47431;SDS011;33183;52.290;6.144;2022-11-20T04:03:53;6.93;;;5.43;;
47431;SDS011;33183;52.290;6.144;2022-11-20T04:06:26;6.05;;;5.40;;
47431;SDS011;33183;52.290;6.144;2022-11-20T04:08:54;5.88;;;5.28;;
47431;SDS011;33183;52.290;6.144;2022-11-20T04:11:21;6.88;;;5.32;;
47431;SDS011;33183;52.290;6.144;2022-11-20T04:13:58;7.07;;;5.88;;
47431;SDS011;33183;52.290;6.144;2022-11-20T04:16:25;6.03;;;5.43;;
47431;SDS011;33183;52.290;6.144;2022-11-20T04:18:52;6.45;;;5.22;;
47431;SDS011;33183;52.290;6.144;2022-11-20T04:21:18;6.85;;;5.50;;
47431;SDS011;33183;52.290;6.144;2022-11-20T04:23:44;6.72;;;5.43;;
47431;SDS011;33183;52.290;6.144;2022-11-20T04:26:10;6.85;;;5.50;;
47431;SDS011;33183;52.290;6.144;2022-11-20T04:28:36;7.15;;;5.90;;
47431;SDS011;33183;52.290;6.144;2022-11-20T04:31:06;7.10;;;5.53;;
47431;SDS011;33183;52.290;6.144;2022-11-20T04:33:33;6.57;;;5.22;;
47431;SDS011;33183;52.290;6.144;2022-11-20T04:36:03;6.80;;;5.07;;
47431;SDS011;33183;52.290;6.144;2022-11-20T04:38:30;6.97;;;4.97;;
47431;SDS011;33183;52.290;6.144;2022-11-20T04:40:57;6.85;;;4.93;;
47431;SDS011;33183;52.290;6.144;2022-11-20T04:43:26;6.60;;;5.55;;
47431;SDS011;33183;52.290;6.144;2022-11-20T04:45:52;6.22;;;5.18;;
47431;SDS011;33183;52.290;6.144;2022-11-20T04:48:18;5.82;;;4.95;;
47431;SDS011;33183;52.290;6.144;2022-11-20T04:50:43;5.97;;;5.15;;
47431;SDS011;33183;52.290;6.144;2022-11-20T04:53:08;6.78;;;5.07;;
47431;SDS011;33183;52.290;6.144;2022-11-20T04:55:33;6.57;;;4.90;;
47431;SDS011;33183;52.290;6.144;2022-11-20T04:57:59;6.70;;;5.47;;
47431;SDS011;33183;52.290;6.144;2022-11-20T05:00:24;6.43;;;5.03;;
47431;SDS011;33183;52.290;6.144;2022-11-20T05:02:49;6.30;;;5.15;;
47431;SDS011;33183;52.290;6.144;2022-11-20T05:05:14;5.55;;;4.82;;
47431;SDS011;33183;52.290;6.144;2022-11-20T05:07:40;6.10;;;5.15;;
47431;SDS011;33183;52.290;6.144;2022-11-20T05:10:05;6.22;;;5.28;;
47431;SDS011;33183;52.290;6.144;2022-11-20T05:12:31;6.10;;;4.97;;
47431;SDS011;33183;52.290;6.144;2022-11-20T05:14:56;6.28;;;5.18;;
47431;SDS011;33183;52.290;6.144;2022-11-20T05:17:21;6.03;;;5.00;;
47431;SDS011;33183;52.290;6.144;2022-11-20T05:19:47;5.95;;;4.70;;
47431;SDS011;33183;52.290;6.144;2022-11-20T05:22:12;7.00;;;4.60;;
47431;SDS011;33183;52.290;6.144;2022-11-20T05:24:37;6.57;;;4.82;;
47431;SDS011;33183;52.290;6.144;2022-11-20T05:27:02;6.50;;;4.75;;
47431;SDS011;33183;52.290;6.144;2022-11-20T05:29:28;5.60;;;4.68;;
47431;SDS011;33183;52.290;6.144;2022-11-20T05:31:53;5.72;;;5.15;;
47431;SDS011;33183;52.290;6.144;2022-11-20T05:34:18;5.65;;;5.05;;
47431;SDS011;33183;52.290;6.144;2022-11-20T05:36:43;7.10;;;5.00;;
47431;SDS011;33183;52.290;6.144;2022-11-20T05:39:09;6.07;;;5.00;;
47431;SDS011;33183;52.290;6.144;2022-11-20T05:41:34;6.78;;;5.30;;
47431;SDS011;33183;52.290;6.144;2022-11-20T05:43:59;5.82;;;4.80;;
47431;SDS011;33183;52.290;6.144;2022-11-20T05:46:25;5.32;;;4.80;;
47431;SDS011;33183;52.290;6.144;2022-11-20T05:48:50;5.88;;;4.93;;
47431;SDS011;33183;52.290;6.144;2022-11-20T05:51:16;6.70;;;5.18;;
47431;SDS011;33183;52.290;6.144;2022-11-20T05:53:42;6.55;;;4.97;;
47431;SDS011;33183;52.290;6.144;2022-11-20T05:56:12;6.00;;;5.03;;
47431;SDS011;33183;52.290;6.144;2022-11-20T05:58:39;4.57;;;4.13;;
47431;SDS011;33183;52.290;6.144;2022-11-20T06:01:06;5.82;;;4.72;;
47431;SDS011;33183;52.290;6.144;2022-11-20T06:03:32;6.53;;;4.47;;
47431;SDS011;33183;52.290;6.144;2022-11-20T06:06:00;6.68;;;5.20;;
47431;SDS011;33183;52.290;6.144;2022-11-20T06:08:26;6.57;;;5.43;;
47431;SDS011;33183;52.290;6.144;2022-11-20T06:10:52;5.60;;;4.68;;
47431;SDS011;33183;52.290;6.144;2022-11-20T06:13:17;5.05;;;4.47;;
47431;SDS011;33183;52.290;6.144;2022-11-20T06:15:47;5.82;;;5.10;;
47431;SDS011;33183;52.290;6.144;2022-11-20T06:18:13;5.22;;;4.72;;
47431;SDS011;33183;52.290;6.144;2022-11-20T06:20:38;5.45;;;4.68;;
47431;SDS011;33183;52.290;6.144;2022-11-20T06:23:04;6.70;;;4.88;;
47431;SDS011;33183;52.290;6.144;2022-11-20T06:25:29;5.80;;;4.63;;
47431;SDS011;33183;52.290;6.144;2022-11-20T06:27:54;5.40;;;4.90;;
47431;SDS011;33183;52.290;6.144;2022-11-20T06:30:19;6.43;;;5.00;;
47431;SDS011;33183;52.290;6.144;2022-11-20T06:32:45;5.82;;;5.18;;
47431;SDS011;33183;52.290;6.144;2022-11-20T06:35:10;7.07;;;5.55;;
47431;SDS011;33183;52.290;6.144;2022-11-20T06:37:35;6.63;;;5.07;;
47431;SDS011;33183;52.290;6.144;2022-11-20T06:40:00;6.47;;;5.38;;
47431;SDS011;33183;52.290;6.144;2022-11-20T06:42:26;5.93;;;5.13;;
47431;SDS011;33183;52.290;6.144;2022-11-20T06:44:51;6.38;;;5.25;;
47431;SDS011;33183;52.290;6.144;2022-11-20T06:47:16;6.15;;;5.10;;
47431;SDS011;33183;52.290;6.144;2022-11-20T06:49:41;5.70;;;5.10;;
47431;SDS011;33183;52.290;6.144;2022-11-20T06:52:06;6.93;;;4.78;;
47431;SDS011;33183;52.290;6.144;2022-11-20T06:54:32;5.35;;;4.82;;
47431;SDS011;33183;52.290;6.144;2022-11-20T06:56:57;7.50;;;5.13;;
47431;SDS011;33183;52.290;6.144;2022-11-20T06:59:22;5.88;;;4.80;;
47431;SDS011;33183;52.290;6.144;2022-11-20T07:01:47;5.80;;;4.72;;
47431;SDS011;33183;52.290;6.144;2022-11-20T07:04:13;5.85;;;5.05;;
47431;SDS011;33183;52.290;6.144;2022-11-20T07:06:38;5.93;;;4.55;;
47431;SDS011;33183;52.290;6.144;2022-11-20T07:09:03;5.70;;;4.85;;
47431;SDS011;33183;52.290;6.144;2022-11-20T07:11:29;9.75;;;5.20;;
47431;SDS011;33183;52.290;6.144;2022-11-20T07:13:54;5.78;;;5.10;;
47431;SDS011;33183;52.290;6.144;2022-11-20T07:16:21;6.00;;;5.20;;
47431;SDS011;33183;52.290;6.144;2022-11-20T07:18:46;5.40;;;4.90;;
47431;SDS011;33183;52.290;6.144;2022-11-20T07:21:12;6.00;;;4.80;;
47431;SDS011;33183;52.290;6.144;2022-11-20T07:23:37;5.45;;;4.95;;
47431;SDS011;33183;52.290;6.144;2022-11-20T07:26:06;5.47;;;4.38;;
47431;SDS011;33183;52.290;6.144;2022-11-20T07:28:32;6.35;;;5.60;;
47431;SDS011;33183;52.290;6.144;2022-11-20T07:30:57;6.70;;;5.10;;
47431;SDS011;33183;52.290;6.144;2022-11-20T07:33:23;5.47;;;4.43;;
47431;SDS011;33183;52.290;6.144;2022-11-20T07:35:48;5.10;;;4.60;;
47431;SDS011;33183;52.290;6.144;2022-11-20T07:38:13;5.00;;;4.50;;
47431;SDS011;33183;52.290;6.144;2022-11-20T07:40:38;5.90;;;5.00;;
47431;SDS011;33183;52.290;6.144;2022-11-20T07:43:04;5.25;;;4.40;;
47431;SDS011;33183;52.290;6.144;2022-11-20T07:45:29;5.28;;;4.78;;
47431;SDS011;33183;52.290;6.144;2022-11-20T07:47:54;6.82;;;4.57;;
47431;SDS011;33183;52.290;6.144;2022-11-20T07:50:19;5.05;;;4.53;;
47431;SDS011;33183;52.290;6.144;2022-11-20T07:52:45;5.30;;;4.55;;
47431;SDS011;33183;52.290;6.144;2022-11-20T07:55:11;4.85;;;4.43;;
47431;SDS011;33183;52.290;6.144;2022-11-20T07:57:36;5.03;;;4.53;;
47431;SDS011;33183;52.290;6.144;2022-11-20T08:00:02;5.15;;;4.65;;
47431;SDS011;33183;52.290;6.144;2022-11-20T08:02:28;7.25;;;4.68;;
47431;SDS011;33183;52.290;6.144;2022-11-20T08:04:54;5.55;;;4.68;;
47431;SDS011;33183;52.290;6.144;2022-11-20T08:07:19;5.05;;;4.32;;
47431;SDS011;33183;52.290;6.144;2022-11-20T08:09:44;5.43;;;4.55;;
47431;SDS011;33183;52.290;6.144;2022-11-20T08:12:15;5.72;;;4.63;;
47431;SDS011;33183;52.290;6.144;2022-11-20T08:15:01;5.40;;;4.90;;
47431;SDS011;33183;52.290;6.144;2022-11-20T08:17:26;5.65;;;5.15;;
47431;SDS011;33183;52.290;6.144;2022-11-20T08:19:52;7.47;;;4.82;;
47431;SDS011;33183;52.290;6.144;2022-11-20T08:22:17;5.75;;;4.95;;
47431;SDS011;33183;52.290;6.144;2022-11-20T08:24:42;5.35;;;4.40;;
47431;SDS011;33183;52.290;6.144;2022-11-20T08:27:07;5.80;;;4.88;;
47431;SDS011;33183;52.290;6.144;2022-11-20T08:29:33;5.63;;;4.78;;
47431;SDS011;33183;52.290;6.144;2022-11-20T08:31:58;6.22;;;4.80;;
47431;SDS011;33183;52.290;6.144;2022-11-20T08:34:23;6.00;;;5.25;;
47431;SDS011;33183;52.290;6.144;2022-11-20T08:36:48;5.63;;;4.78;;
47431;SDS011;33183;52.290;6.144;2022-11-20T08:39:14;5.43;;;4.88;;
47431;SDS011;33183;52.290;6.144;2022-11-20T08:41:39;7.68;;;5.50;;
47431;SDS011;33183;52.290;6.144;2022-11-20T08:44:05;5.15;;;4.65;;
47431;SDS011;33183;52.290;6.144;2022-11-20T08:46:32;6.68;;;5.05;;
47431;SDS011;33183;52.290;6.144;2022-11-20T08:49:06;5.88;;;4.88;;
47431;SDS011;33183;52.290;6.144;2022-11-20T08:51:32;6.50;;;5.03;;
47431;SDS011;33183;52.290;6.144;2022-11-20T08:53:58;5.28;;;4.78;;
47431;SDS011;33183;52.290;6.144;2022-11-20T08:56:23;6.63;;;5.13;;
47431;SDS011;33183;52.290;6.144;2022-11-20T08:58:49;5.15;;;4.65;;
47431;SDS011;33183;52.290;6.144;2022-11-20T09:01:16;5.70;;;4.63;;
47431;SDS011;33183;52.290;6.144;2022-11-20T09:03:41;5.93;;;4.38;;
47431;SDS011;33183;52.290;6.144;2022-11-20T09:06:07;5.82;;;4.72;;
47431;SDS011;33183;52.290;6.144;2022-11-20T09:08:32;5.78;;;4.35;;
47431;SDS011;33183;52.290;6.144;2022-11-20T09:10:58;5.35;;;4.80;;
47431;SDS011;33183;52.290;6.144;2022-11-20T09:13:24;5.07;;;4.63;;
47431;SDS011;33183;52.290;6.144;2022-11-20T09:15:57;5.53;;;4.63;;
47431;SDS011;33183;52.290;6.144;2022-11-20T09:18:24;5.05;;;4.45;;
47431;SDS011;33183;52.290;6.144;2022-11-20T09:20:49;5.30;;;4.70;;
47431;SDS011;33183;52.290;6.144;2022-11-20T09:23:14;5.32;;;4.65;;
47431;SDS011;33183;52.290;6.144;2022-11-20T09:25:40;5.65;;;5.00;;
47431;SDS011;33183;52.290;6.144;2022-11-20T09:28:05;6.40;;;5.57;;
47431;SDS011;33183;52.290;6.144;2022-11-20T09:30:30;5.40;;;4.90;;
47431;SDS011;33183;52.290;6.144;2022-11-20T09:32:56;5.43;;;4.65;;
47431;SDS011;33183;52.290;6.144;2022-11-20T09:35:21;5.35;;;4.53;;
47431;SDS011;33183;52.290;6.144;2022-11-20T09:37:47;5.47;;;4.55;;
47431;SDS011;33183;52.290;6.144;2022-11-20T09:40:28;5.20;;;4.68;;
47431;SDS011;33183;52.290;6.144;2022-11-20T09:43:13;7.00;;;4.85;;
47431;SDS011;33183;52.290;6.144;2022-11-20T09:48:38;5.43;;;4.93;;
47431;SDS011;33183;52.290;6.144;2022-11-20T09:54:05;5.22;;;4.57;;
47431;SDS011;33183;52.290;6.144;2022-11-20T09:56:39;6.15;;;4.57;;
47431;SDS011;33183;52.290;6.144;2022-11-20T09:59:07;6.30;;;5.28;;
47431;SDS011;33183;52.290;6.144;2022-11-20T10:01:56;5.45;;;4.88;;
47431;SDS011;33183;52.290;6.144;2022-11-20T10:04:22;4.80;;;4.30;;
47431;SDS011;33183;52.290;6.144;2022-11-20T10:06:56;4.80;;;4.22;;
47431;SDS011;33183;52.290;6.144;2022-11-20T10:09:43;5.32;;;4.55;;
47431;SDS011;33183;52.290;6.144;2022-11-20T10:15:22;6.45;;;4.93;;
47431;SDS011;33183;52.290;6.144;2022-11-20T10:21:12;6.25;;;4.93;;
47431;SDS011;33183;52.290;6.144;2022-11-20T10:24:04;5.00;;;4.28;;
47431;SDS011;33183;52.290;6.144;2022-11-20T10:29:12;6.40;;;4.68;;
47431;SDS011;33183;52.290;6.144;2022-11-20T10:31:40;4.43;;;3.63;;
47431;SDS011;33183;52.290;6.144;2022-11-20T10:34:21;5.50;;;4.57;;
47431;SDS011;33183;52.290;6.144;2022-11-20T10:36:56;5.70;;;4.38;;
47431;SDS011;33183;52.290;6.144;2022-11-20T10:39:30;5.53;;;4.20;;
47431;SDS011;33183;52.290;6.144;2022-11-20T10:41:59;5.57;;;4.72;;
47431;SDS011;33183;52.290;6.144;2022-11-20T10:44:26;5.75;;;4.40;;
47431;SDS011;33183;52.290;6.144;2022-11-20T10:47:15;5.38;;;4.55;;
47431;SDS011;33183;52.290;6.144;2022-11-20T10:49:42;5.55;;;4.80;;
47431;SDS011;33183;52.290;6.144;2022-11-20T10:55:06;5.63;;;4.57;;
47431;SDS011;33183;52.290;6.144;2022-11-20T10:58:01;5.95;;;4.85;;
47431;SDS011;33183;52.290;6.144;2022-11-20T11:00:32;5.65;;;4.95;;
47431;SDS011;33183;52.290;6.144;2022-11-20T11:02:57;5.25;;;4.75;;
47431;SDS011;33183;52.290;6.144;2022-11-20T11:08:10;6.50;;;4.18;;
47431;SDS011;33183;52.290;6.144;2022-11-20T11:10:44;5.25;;;4.53;;
47431;SDS011;33183;52.290;6.144;2022-11-20T11:13:19;5.20;;;4.22;;
47431;SDS011;33183;52.290;6.144;2022-11-20T11:15:54;5.10;;;4.30;;
47431;SDS011;33183;52.290;6.144;2022-11-20T11:18:27;5.32;;;4.00;;
47431;SDS011;33183;52.290;6.144;2022-11-20T11:20:55;5.93;;;4.88;;
47431;SDS011;33183;52.290;6.144;2022-11-20T11:23:26;5.20;;;4.70;;
47431;SDS011;33183;52.290;6.144;2022-11-20T11:25:58;4.80;;;4.22;;
47431;SDS011;33183;52.290;6.144;2022-11-20T11:28:25;5.55;;;4.00;;
47431;SDS011;33183;52.290;6.144;2022-11-20T11:30:52;4.88;;;4.38;;
47431;SDS011;33183;52.290;6.144;2022-11-20T11:33:19;4.78;;;3.63;;
47431;SDS011;33183;52.290;6.144;2022-11-20T11:35:50;5.38;;;4.35;;
47431;SDS011;33183;52.290;6.144;2022-11-20T11:41:02;5.25;;;4.70;;
47431;SDS011;33183;52.290;6.144;2022-11-20T11:43:29;5.13;;;3.97;;
47431;SDS011;33183;52.290;6.144;2022-11-20T11:48:59;4.80;;;4.28;;
47431;SDS011;33183;52.290;6.144;2022-11-20T11:51:33;6.00;;;4.63;;
47431;SDS011;33183;52.290;6.144;2022-11-20T11:54:14;4.97;;;4.28;;
47431;SDS011;33183;52.290;6.144;2022-11-20T11:56:41;4.28;;;3.88;;
47431;SDS011;33183;52.290;6.144;2022-11-20T11:59:09;4.57;;;3.75;;
47431;SDS011;33183;52.290;6.144;2022-11-20T12:01:38;4.93;;;4.03;;
47431;SDS011;33183;52.290;6.144;2022-11-20T12:04:27;5.53;;;4.00;;
47431;SDS011;33183;52.290;6.144;2022-11-20T12:10:04;4.53;;;4.07;;
47431;SDS011;33183;52.290;6.144;2022-11-20T12:12:36;3.50;;;3.20;;
47431;SDS011;33183;52.290;6.144;2022-11-20T12:15:08;5.07;;;4.05;;
47431;SDS011;33183;52.290;6.144;2022-11-20T12:17:36;4.90;;;4.15;;
47431;SDS011;33183;52.290;6.144;2022-11-20T12:20:01;5.13;;;3.67;;
47431;SDS011;33183;52.290;6.144;2022-11-20T12:25:03;3.80;;;3.40;;
47431;SDS011;33183;52.290;6.144;2022-11-20T12:30:27;4.57;;;3.53;;
47431;SDS011;33183;52.290;6.144;2022-11-20T12:44:38;6.43;;;4.05;;
47431;SDS011;33183;52.290;6.144;2022-11-20T12:52:57;5.78;;;4.00;;
47431;SDS011;33183;52.290;6.144;2022-11-20T13:00:50;5.00;;;4.18;;
47431;SDS011;33183;52.290;6.144;2022-11-20T13:03:36;7.20;;;4.85;;
47431;SDS011;33183;52.290;6.144;2022-11-20T13:06:17;4.72;;;3.70;;
47431;SDS011;33183;52.290;6.144;2022-11-20T13:08:47;6.68;;;3.70;;
47431;SDS011;33183;52.290;6.144;2022-11-20T13:11:23;5.13;;;3.50;;
47431;SDS011;33183;52.290;6.144;2022-11-20T13:17:17;5.13;;;3.67;;
47431;SDS011;33183;52.290;6.144;2022-11-20T13:19:50;7.20;;;4.03;;
47431;SDS011;33183;52.290;6.144;2022-11-20T13:22:28;6.22;;;3.70;;
47431;SDS011;33183;52.290;6.144;2022-11-20T13:24:56;4.10;;;3.70;;
47431;SDS011;33183;52.290;6.144;2022-11-20T13:27:22;8.00;;;3.67;;
47431;SDS011;33183;52.290;6.144;2022-11-20T13:35:23;6.53;;;3.28;;
47431;SDS011;33183;52.290;6.144;2022-11-20T13:40:27;6.78;;;4.28;;
47431;SDS011;33183;52.290;6.144;2022-11-20T13:43:00;4.82;;;3.45;;
47431;SDS011;33183;52.290;6.144;2022-11-20T13:45:28;5.07;;;3.35;;
47431;SDS011;33183;52.290;6.144;2022-11-20T13:47:55;6.00;;;3.55;;
47431;SDS011;33183;52.290;6.144;2022-11-20T13:50:24;4.72;;;3.60;;
47431;SDS011;33183;52.290;6.144;2022-11-20T13:58:15;4.93;;;3.60;;
47431;SDS011;33183;52.290;6.144;2022-11-20T14:00:48;4.78;;;3.35;;
47431;SDS011;33183;52.290;6.144;2022-11-20T14:03:23;4.20;;;3.25;;
47431;SDS011;33183;52.290;6.144;2022-11-20T14:05:55;4.25;;;3.40;;
47431;SDS011;33183;52.290;6.144;2022-11-20T14:08:42;3.40;;;3.10;;
47431;SDS011;33183;52.290;6.144;2022-11-20T14:11:17;5.13;;;3.70;;
47431;SDS011;33183;52.290;6.144;2022-11-20T14:14:46;5.72;;;3.22;;
47431;SDS011;33183;52.290;6.144;2022-11-20T14:16:45;3.47;;;3.05;;
47431;SDS011;33183;52.290;6.144;2022-11-20T14:21:48;6.15;;;3.47;;
47431;SDS011;33183;52.290;6.144;2022-11-20T14:24:18;4.88;;;3.15;;
47431;SDS011;33183;52.290;6.144;2022-11-20T14:26:44;4.05;;;3.03;;
47431;SDS011;33183;52.290;6.144;2022-11-20T14:29:21;5.95;;;3.30;;
47431;SDS011;33183;52.290;6.144;2022-11-20T14:32:08;4.22;;;3.15;;
47431;SDS011;33183;52.290;6.144;2022-11-20T14:34:35;3.63;;;3.30;;
47431;SDS011;33183;52.290;6.144;2022-11-20T14:37:04;4.10;;;3.17;;
47431;SDS011;33183;52.290;6.144;2022-11-20T14:39:34;4.85;;;3.05;;
47431;SDS011;33183;52.290;6.144;2022-11-20T14:42:01;5.65;;;3.08;;
47431;SDS011;33183;52.290;6.144;2022-11-20T14:44:27;9.90;;;3.30;;
47431;SDS011;33183;52.290;6.144;2022-11-20T14:46:55;4.75;;;2.80;;
47431;SDS011;33183;52.290;6.144;2022-11-20T14:49:22;3.45;;;2.88;;
47431;SDS011;33183;52.290;6.144;2022-11-20T14:51:57;5.88;;;3.63;;
47431;SDS011;33183;52.290;6.144;2022-11-20T14:56:54;5.93;;;3.58;;
47431;SDS011;33183;52.290;6.144;2022-11-20T14:59:23;5.93;;;3.20;;
47431;SDS011;33183;52.290;6.144;2022-11-20T15:01:59;6.38;;;3.28;;
47431;SDS011;33183;52.290;6.144;2022-11-20T15:04:26;6.50;;;3.45;;
47431;SDS011;33183;52.290;6.144;2022-11-20T15:06:53;5.88;;;3.47;;
47431;SDS011;33183;52.290;6.144;2022-11-20T15:09:19;4.90;;;3.42;;
47431;SDS011;33183;52.290;6.144;2022-11-20T15:11:58;5.43;;;4.00;;
47431;SDS011;33183;52.290;6.144;2022-11-20T15:14:25;5.78;;;3.65;;
47431;SDS011;33183;52.290;6.144;2022-11-20T15:16:51;9.13;;;3.85;;
47431;SDS011;33183;52.290;6.144;2022-11-20T15:19:18;4.80;;;3.83;;
47431;SDS011;33183;52.290;6.144;2022-11-20T15:21:45;5.38;;;3.80;;
47431;SDS011;33183;52.290;6.144;2022-11-20T15:24:10;7.53;;;4.20;;
47431;SDS011;33183;52.290;6.144;2022-11-20T15:26:35;8.38;;;4.45;;
47431;SDS011;33183;52.290;6.144;2022-11-20T15:29:02;4.88;;;3.90;;
47431;SDS011;33183;52.290;6.144;2022-11-20T15:31:27;6.10;;;4.03;;
47431;SDS011;33183;52.290;6.144;2022-11-20T15:33:53;5.38;;;3.70;;
47431;SDS011;33183;52.290;6.144;2022-11-20T15:36:18;7.13;;;4.00;;
47431;SDS011;33183;52.290;6.144;2022-11-20T15:38:43;7.05;;;4.00;;
47431;SDS011;33183;52.290;6.144;2022-11-20T15:41:08;6.40;;;4.50;;
47431;SDS011;33183;52.290;6.144;2022-11-20T15:43:35;5.90;;;4.22;;
47431;SDS011;33183;52.290;6.144;2022-11-20T15:46:00;5.78;;;3.88;;
47431;SDS011;33183;52.290;6.144;2022-11-20T15:48:34;6.47;;;4.10;;
47431;SDS011;33183;52.290;6.144;2022-11-20T15:53:36;7.57;;;4.38;;
47431;SDS011;33183;52.290;6.144;2022-11-20T15:56:05;9.50;;;5.00;;
47431;SDS011;33183;52.290;6.144;2022-11-20T15:58:30;8.23;;;4.30;;
47431;SDS011;33183;52.290;6.144;2022-11-20T16:00:56;4.65;;;4.00;;
47431;SDS011;33183;52.290;6.144;2022-11-20T16:03:21;7.65;;;4.50;;
47431;SDS011;33183;52.290;6.144;2022-11-20T16:05:47;8.38;;;5.10;;
47431;SDS011;33183;52.290;6.144;2022-11-20T16:08:12;5.95;;;4.60;;
47431;SDS011;33183;52.290;6.144;2022-11-20T16:10:37;7.57;;;4.32;;
47431;SDS011;33183;52.290;6.144;2022-11-20T16:13:03;9.88;;;5.35;;
47431;SDS011;33183;52.290;6.144;2022-11-20T16:15:51;7.05;;;5.20;;
47431;SDS011;33183;52.290;6.144;2022-11-20T16:18:18;9.07;;;5.35;;
47431;SDS011;33183;52.290;6.144;2022-11-20T16:20:45;9.88;;;5.35;;
47431;SDS011;33183;52.290;6.144;2022-11-20T16:23:12;10.68;;;5.32;;
47431;SDS011;33183;52.290;6.144;2022-11-20T16:25:38;9.23;;;5.45;;